Time;durP1;ratioP1;P1;durP2;ratioP2;P2;SDS_P1;SDS_P2;PMS_P1;PMS_P2;Temp;Humidity;BMP_temperature;BMP_pressure;BME280_temperature;BME280_humidity;BME280_pressure;Samples;Min_cycle;Max_cycle;Signal;HPM_P1;HPM_P2
2022/04/25 00:01:15;;;;;;;17.97;16.37;;;12.20;99.90;;;;;;5090198;28;20447;-76
2022/04/25 00:03:41;;;;;;;20.37;18.30;;;12.20;99.90;;;;;;5097183;28;20471;-76
2022/04/25 00:06:07;;;;;;;18.30;16.50;;;12.20;99.90;;;;;;5096520;28;20415;-76
2022/04/25 00:08:32;;;;;;;19.97;18.07;;;12.00;99.90;;;;;;5095989;28;20392;-76
2022/04/25 00:10:58;;;;;;;18.60;16.87;;;11.90;99.90;;;;;;5094681;28;20197;-76
2022/04/25 00:13:24;;;;;;;20.90;18.90;;;12.00;99.90;;;;;;5096124;28;20173;-76
2022/04/25 00:15:49;;;;;;;19.30;17.40;;;12.00;99.90;;;;;;5096953;28;20174;-76
2022/04/25 00:18:15;;;;;;;21.03;18.93;;;12.00;99.90;;;;;;5095226;28;20201;-76
2022/04/25 00:20:41;;;;;;;21.83;19.63;;;11.90;99.90;;;;;;5095053;28;20205;-76
2022/04/25 00:23:06;;;;;;;19.47;17.67;;;11.80;99.90;;;;;;5093887;28;20203;-76
2022/04/25 00:25:33;;;;;;;22.90;20.70;;;11.90;99.90;;;;;;5094467;28;20252;-76
2022/04/25 00:28:00;;;;;;;21.67;19.57;;;11.90;99.90;;;;;;5095048;28;20658;-76
2022/04/25 00:30:26;;;;;;;20.57;18.63;;;12.00;99.90;;;;;;5075154;28;20465;-77
2022/04/25 00:32:52;;;;;;;19.83;17.77;;;11.90;99.90;;;;;;5095224;28;20409;-76
2022/04/25 00:35:18;;;;;;;23.43;21.13;;;11.80;99.90;;;;;;5095311;28;20407;-77
2022/04/25 00:37:43;;;;;;;23.30;21.10;;;11.90;99.90;;;;;;5094779;28;20174;-77
2022/04/25 00:40:09;;;;;;;21.87;19.67;;;11.80;99.90;;;;;;5076016;28;20476;-76
2022/04/25 00:42:36;;;;;;;20.87;18.67;;;11.70;99.90;;;;;;5093930;28;20277;-76
2022/04/25 00:45:02;;;;;;;21.83;19.73;;;11.60;99.90;;;;;;5076384;28;20522;-76
2022/04/25 00:47:29;;;;;;;23.40;21.10;;;11.50;99.90;;;;;;5094618;28;20789;-76
2022/04/25 00:49:54;;;;;;;24.60;22.10;;;11.50;99.90;;;;;;5095128;28;20427;-76
2022/04/25 00:52:20;;;;;;;22.73;20.53;;;11.60;99.90;;;;;;5094684;28;20745;-76
2022/04/25 00:54:46;;;;;;;24.33;22.03;;;11.60;99.90;;;;;;5094725;28;20227;-76
2022/04/25 00:57:11;;;;;;;23.93;21.63;;;11.40;99.90;;;;;;5094920;28;20201;-77
2022/04/25 00:59:37;;;;;;;23.50;21.30;;;11.50;99.90;;;;;;5094375;28;20447;-77
2022/04/25 01:02:04;;;;;;;24.80;22.40;;;11.60;99.90;;;;;;5096199;28;20176;-77
2022/04/25 01:04:30;;;;;;;25.83;23.43;;;11.50;99.90;;;;;;5094976;28;20958;-76
2022/04/25 01:06:56;;;;;;;26.57;23.90;;;11.50;99.90;;;;;;5095587;28;20456;-77
2022/04/25 01:09:24;;;;;;;26.37;23.87;;;11.50;99.90;;;;;;5094929;28;20883;-76
2022/04/25 01:11:50;;;;;;;27.13;24.50;;;11.40;99.90;;;;;;5093954;28;20171;-77
2022/04/25 01:14:17;;;;;;;28.67;25.87;;;11.30;99.90;;;;;;5095241;28;20413;-77
2022/04/25 01:16:45;;;;;;;26.33;23.77;;;11.30;99.90;;;;;;5096173;28;20172;-77
2022/04/25 01:19:11;;;;;;;28.90;26.10;;;11.30;99.90;;;;;;5094398;28;20894;-76
2022/04/25 01:21:58;;;;;;;27.90;25.17;;;11.10;99.90;;;;;;5075858;28;20793;-76
2022/04/25 01:27:15;;;;;;;28.97;26.17;;;11.00;99.90;;;;;;5094532;28;20438;-77
2022/04/25 01:29:42;;;;;;;29.30;26.50;;;10.90;99.90;;;;;;5075843;28;20455;-76
2022/04/25 01:32:08;;;;;;;27.90;25.27;;;10.90;99.90;;;;;;5094135;28;20435;-77
2022/04/25 01:34:37;;;;;;;30.23;27.23;;;10.90;99.90;;;;;;5077952;28;20408;-77
2022/04/25 01:37:08;;;;;;;29.57;26.77;;;10.90;99.90;;;;;;5057687;28;20904;-77
2022/04/25 01:39:34;;;;;;;27.87;25.20;;;11.00;99.90;;;;;;5076173;28;20429;-77
2022/04/25 01:42:00;;;;;;;28.67;26.03;;;10.90;99.90;;;;;;5094202;28;20426;-77
2022/04/25 01:44:26;;;;;;;28.37;25.60;;;11.10;99.90;;;;;;5095744;28;20861;-77
2022/04/25 01:46:52;;;;;;;29.50;26.53;;;11.10;99.90;;;;;;5094107;28;20496;-77
2022/04/25 01:49:17;;;;;;;28.67;25.80;;;11.20;99.90;;;;;;5093497;28;20252;-76
2022/04/25 01:51:43;;;;;;;29.80;26.97;;;11.10;99.90;;;;;;5093919;28;20170;-77
2022/04/25 01:54:09;;;;;;;29.73;26.93;;;11.10;99.90;;;;;;5075330;28;20178;-77
2022/04/25 01:56:34;;;;;;;29.30;26.43;;;11.20;99.90;;;;;;5092772;28;20175;-77
2022/04/25 01:59:00;;;;;;;27.40;24.80;;;11.20;99.90;;;;;;5094035;28;20215;-77
2022/04/25 02:01:26;;;;;;;29.90;26.90;;;11.20;99.90;;;;;;5093597;28;20193;-78
2022/04/25 02:03:51;;;;;;;33.80;30.50;;;11.30;99.90;;;;;;5093713;28;20262;-77
2022/04/25 02:06:17;;;;;;;32.47;29.40;;;11.20;99.90;;;;;;5076793;28;20359;-77
2022/04/25 02:08:43;;;;;;;30.97;27.77;;;11.20;99.90;;;;;;5093873;28;20668;-77
2022/04/25 02:11:25;;;;;;;30.30;27.50;;;11.10;99.90;;;;;;5075586;28;20246;-75
2022/04/25 02:13:54;;;;;;;33.20;30.00;;;11.30;99.90;;;;;;5093546;28;20395;-76
2022/04/25 02:16:21;;;;;;;29.30;26.17;;;11.30;99.90;;;;;;5093132;28;20466;-76
2022/04/25 02:18:47;;;;;;;28.50;25.80;;;11.20;99.90;;;;;;5093367;28;20439;-76
2022/04/25 02:21:13;;;;;;;28.93;26.23;;;11.30;99.90;;;;;;5092941;28;20447;-76
2022/04/25 02:23:39;;;;;;;29.13;26.17;;;11.20;99.90;;;;;;5093060;28;20534;-76
2022/04/25 02:26:06;;;;;;;31.03;28.03;;;11.20;99.90;;;;;;5093357;28;20193;-76
2022/04/25 02:28:34;;;;;;;28.90;26.03;;;11.20;99.90;;;;;;5094393;28;20493;-76
2022/04/25 02:31:00;;;;;;;28.03;25.33;;;11.30;99.90;;;;;;5047756;28;20451;-77
2022/04/25 02:33:27;;;;;;;27.90;25.20;;;11.20;99.90;;;;;;5073385;28;20456;-77
2022/04/25 02:35:53;;;;;;;27.83;25.13;;;11.20;99.90;;;;;;5073294;28;20438;-76
2022/04/25 02:38:19;;;;;;;28.27;25.60;;;11.00;99.90;;;;;;5072671;28;20486;-76
2022/04/25 02:40:44;;;;;;;27.80;25.00;;;10.90;99.90;;;;;;5072417;28;20466;-76
2022/04/25 02:43:10;;;;;;;29.13;26.37;;;10.90;99.90;;;;;;5054725;28;20204;-76
2022/04/25 02:45:36;;;;;;;29.40;26.60;;;11.00;99.90;;;;;;5073022;28;20666;-76
2022/04/25 02:48:02;;;;;;;26.97;24.40;;;11.00;99.90;;;;;;5073058;28;20673;-76
2022/04/25 02:50:27;;;;;;;28.23;25.60;;;11.00;99.90;;;;;;5073090;28;20186;-77
2022/04/25 02:52:54;;;;;;;29.10;26.10;;;10.90;99.90;;;;;;5072698;28;20404;-76
2022/04/25 02:55:20;;;;;;;28.47;25.63;;;11.00;99.90;;;;;;5072436;28;20470;-77
2022/04/25 02:57:46;;;;;;;30.07;27.00;;;11.10;99.90;;;;;;5072821;28;20419;-76
2022/04/25 03:00:12;;;;;;;29.90;27.00;;;11.00;99.90;;;;;;5072686;28;20434;-77
2022/04/25 03:02:38;;;;;;;31.87;28.87;;;10.90;99.90;;;;;;5072755;28;20404;-76
2022/04/25 03:05:04;;;;;;;29.10;26.27;;;11.00;99.90;;;;;;5054659;28;20931;-77
2022/04/25 03:07:30;;;;;;;30.80;27.80;;;11.00;99.90;;;;;;5074824;28;20510;-77
2022/04/25 03:09:56;;;;;;;27.60;25.00;;;11.00;99.90;;;;;;5089446;28;20446;-77
2022/04/25 03:12:22;;;;;;;31.00;28.00;;;10.90;99.90;;;;;;5077605;28;20264;-77
2022/04/25 03:14:47;;;;;;;33.20;30.10;;;10.90;99.90;;;;;;5096656;28;20494;-77
2022/04/25 03:17:13;;;;;;;32.53;29.43;;;10.80;99.90;;;;;;5096402;28;20177;-77
2022/04/25 03:19:39;;;;;;;27.63;25.03;;;10.80;99.90;;;;;;5096000;28;20208;-77
2022/04/25 03:22:05;;;;;;;27.97;25.17;;;11.00;99.90;;;;;;5096348;28;20630;-77
2022/04/25 03:24:30;;;;;;;30.97;27.97;;;11.00;99.90;;;;;;5096204;28;20196;-77
2022/04/25 03:26:57;;;;;;;34.53;31.10;;;10.90;99.90;;;;;;5095833;28;20410;-77
2022/04/25 03:29:23;;;;;;;26.00;23.13;;;10.90;99.90;;;;;;5091796;28;20167;-77
2022/04/25 03:31:48;;;;;;;33.50;30.30;;;11.00;99.90;;;;;;5075749;28;20411;-77
2022/04/25 03:34:14;;;;;;;35.30;31.60;;;10.80;99.90;;;;;;5075806;28;20177;-77
2022/04/25 03:36:39;;;;;;;28.53;25.73;;;10.80;99.90;;;;;;5075772;28;20193;-77
2022/04/25 03:39:06;;;;;;;33.87;30.40;;;10.80;99.90;;;;;;5075837;28;20166;-77
2022/04/25 03:41:31;;;;;;;31.10;27.90;;;10.70;99.90;;;;;;5088928;28;20284;-77
2022/04/25 03:43:57;;;;;;;30.63;27.43;;;10.70;99.90;;;;;;5096127;28;20530;-77
2022/04/25 03:46:23;;;;;;;34.53;30.73;;;10.50;99.90;;;;;;5096878;28;20574;-77
2022/04/25 03:48:48;;;;;;;30.07;27.17;;;10.40;99.90;;;;;;5096166;28;20455;-76
2022/04/25 03:51:14;;;;;;;33.37;29.97;;;10.50;99.90;;;;;;5095705;28;20310;-76
2022/04/25 03:53:40;;;;;;;33.60;29.90;;;10.50;99.90;;;;;;5095502;28;20176;-76
2022/04/25 03:58:50;;;;;;;33.47;29.80;;;10.40;99.90;;;;;;5096123;28;20428;-77
2022/04/25 04:01:16;;;;;;;34.87;31.27;;;10.30;99.90;;;;;;5095802;28;20423;-76
2022/04/25 04:03:41;;;;;;;31.90;28.73;;;10.40;99.90;;;;;;5095841;28;20193;-77
2022/04/25 04:06:09;;;;;;;31.80;28.43;;;10.30;99.90;;;;;;5096333;28;20172;-77
2022/04/25 04:08:35;;;;;;;29.67;26.47;;;10.40;99.90;;;;;;5095832;28;20544;-77
2022/04/25 04:11:03;;;;;;;30.13;26.93;;;10.50;99.90;;;;;;5075731;28;20584;-76
2022/04/25 04:13:29;;;;;;;29.30;26.30;;;10.50;99.90;;;;;;5095825;28;20788;-77
2022/04/25 04:15:56;;;;;;;30.53;27.43;;;10.50;99.90;;;;;;5095575;28;20514;-77
2022/04/25 04:18:23;;;;;;;32.70;29.37;;;10.50;99.90;;;;;;5094957;28;20189;-77
2022/04/25 04:20:49;;;;;;;27.13;24.43;;;10.60;99.90;;;;;;5110277;22;20494;-68
2022/04/25 04:23:15;;;;;;;30.33;27.27;;;10.50;99.90;;;;;;5077055;28;20453;-69
2022/04/25 04:25:40;;;;;;;27.97;25.27;;;10.50;99.90;;;;;;5063915;28;20416;-69
2022/04/25 04:28:06;;;;;;;31.77;28.63;;;10.50;99.90;;;;;;5048036;28;20699;-69
2022/04/25 04:30:33;;;;;;;31.53;28.33;;;10.60;99.90;;;;;;5065372;28;20194;-69
2022/04/25 04:32:58;;;;;;;32.03;28.80;;;10.50;99.90;;;;;;5073398;28;20252;-68
2022/04/25 04:38:09;;;;;;;34.67;30.97;;;10.50;99.90;;;;;;5074878;28;20161;-69
2022/04/25 04:40:35;;;;;;;28.47;25.60;;;10.50;99.90;;;;;;5074335;28;20981;-69
2022/04/25 04:43:02;;;;;;;28.83;25.97;;;10.50;99.90;;;;;;5074329;28;20457;-69
2022/04/25 04:45:28;;;;;;;29.43;26.53;;;10.60;99.90;;;;;;5074132;28;20412;-69
2022/04/25 04:47:54;;;;;;;28.80;25.80;;;10.60;99.90;;;;;;5074576;28;20400;-70
2022/04/25 04:50:20;;;;;;;32.87;29.47;;;10.70;99.90;;;;;;5076064;28;20627;-69
2022/04/25 04:52:47;;;;;;;32.40;28.77;;;10.80;99.90;;;;;;5076757;28;20433;-70
2022/04/25 04:55:14;;;;;;;30.47;27.50;;;10.80;99.90;;;;;;5094570;28;20210;-70
2022/04/25 04:57:40;;;;;;;34.40;29.20;;;10.80;99.90;;;;;;5094129;28;20409;-70
2022/04/25 05:00:09;;;;;;;29.93;27.00;;;10.90;99.90;;;;;;5094651;28;20403;-70
2022/04/25 05:02:36;;;;;;;30.73;27.47;;;10.90;99.90;;;;;;5094289;28;20497;-70
2022/04/25 05:05:03;;;;;;;32.73;29.30;;;11.00;99.90;;;;;;5093690;28;20784;-72
2022/04/25 05:10:53;;;;;;;28.83;25.90;;;11.20;99.90;;;;;;5092689;28;20431;-73
2022/04/25 05:13:20;;;;;;;28.57;25.77;;;11.20;99.90;;;;;;5094431;28;20414;-70
2022/04/25 05:15:46;;;;;;;29.37;26.37;;;11.20;99.90;;;;;;5094255;28;20396;-69
2022/04/25 05:18:12;;;;;;;29.37;26.27;;;11.20;99.90;;;;;;5094218;28;20877;-69
2022/04/25 05:20:38;;;;;;;28.63;25.70;;;11.20;99.90;;;;;;5094101;28;20439;-69
2022/04/25 05:23:04;;;;;;;27.93;24.60;;;11.20;99.90;;;;;;5076558;28;20639;-69
2022/04/25 05:25:30;;;;;;;31.63;28.27;;;11.20;99.90;;;;;;5073083;28;20166;-69
2022/04/25 05:27:56;;;;;;;30.70;27.47;;;11.20;99.90;;;;;;5054808;28;20500;-70
2022/04/25 05:30:24;;;;;;;29.77;26.77;;;11.30;99.90;;;;;;5055593;28;20421;-69
2022/04/25 05:32:51;;;;;;;28.13;25.30;;;11.40;99.90;;;;;;5053825;28;20170;-68
2022/04/25 05:35:18;;;;;;;31.33;28.03;;;11.50;99.90;;;;;;5053701;28;20492;-69
2022/04/25 05:37:44;;;;;;;31.40;28.17;;;11.50;99.90;;;;;;5054056;28;20915;-69
2022/04/25 05:40:11;;;;;;;27.70;25.00;;;11.50;99.90;;;;;;5054806;28;20424;-69
2022/04/25 05:42:39;;;;;;;29.90;26.90;;;11.60;99.90;;;;;;5073716;28;20830;-70
2022/04/25 05:45:06;;;;;;;30.70;27.70;;;11.60;99.90;;;;;;5073610;28;20406;-70
2022/04/25 05:47:33;;;;;;;30.97;27.90;;;11.70;99.90;;;;;;5074196;28;20399;-69
2022/04/25 05:52:44;;;;;;;26.93;24.33;;;12.10;99.90;;;;;;5074143;28;20501;-69
2022/04/25 05:55:10;;;;;;;27.87;24.87;;;12.20;99.90;;;;;;5074184;28;20820;-69
2022/04/25 05:57:36;;;;;;;28.17;25.47;;;12.50;99.90;;;;;;5075109;28;20638;-70
2022/04/25 06:00:05;;;;;;;24.37;22.07;;;12.50;99.90;;;;;;5086447;28;20244;-69
2022/04/25 06:02:31;;;;;;;27.13;24.60;;;12.40;99.90;;;;;;5084002;28;20405;-68
2022/04/25 06:04:57;;;;;;;25.00;22.60;;;12.60;99.90;;;;;;5074464;28;20403;-68
2022/04/25 06:07:22;;;;;;;25.53;23.03;;;12.40;99.90;;;;;;5076972;28;20163;-69
2022/04/25 06:09:48;;;;;;;25.57;22.93;;;12.60;99.90;;;;;;5079054;28;20229;-69
2022/04/25 06:12:13;;;;;;;23.60;21.40;;;12.90;99.90;;;;;;5094308;28;21549;-69
2022/04/25 06:14:40;;;;;;;24.70;22.30;;;13.20;99.90;;;;;;5092483;28;20177;-70
2022/04/25 06:17:06;;;;;;;23.30;21.00;;;13.30;99.90;;;;;;5088591;28;20192;-70
2022/04/25 06:19:32;;;;;;;24.90;22.53;;;13.40;99.90;;;;;;5073112;28;20889;-69
2022/04/25 06:21:58;;;;;;;22.50;20.33;;;13.10;99.90;;;;;;5073161;28;20262;-69
2022/04/25 06:24:23;;;;;;;24.17;21.70;;;13.10;99.90;;;;;;5073235;28;20997;-69
2022/04/25 06:26:49;;;;;;;22.43;20.23;;;13.10;99.90;;;;;;5073107;28;20169;-68
2022/04/25 06:29:16;;;;;;;24.23;21.97;;;13.00;99.90;;;;;;5072533;28;20628;-68
2022/04/25 06:31:42;;;;;;;21.67;19.50;;;13.20;99.90;;;;;;5072884;28;20422;-70
2022/04/25 06:34:08;;;;;;;22.90;20.80;;;13.10;99.90;;;;;;5072711;28;20895;-69
2022/04/25 06:36:36;;;;;;;24.40;22.13;;;13.10;99.90;;;;;;5073290;28;20407;-70
2022/04/25 06:39:02;;;;;;;24.93;22.53;;;13.30;99.90;;;;;;5072884;28;20643;-70
2022/04/25 06:41:30;;;;;;;22.80;20.60;;;13.30;99.90;;;;;;5073450;28;20477;-70
2022/04/25 06:43:55;;;;;;;20.10;18.30;;;13.30;99.90;;;;;;5092766;28;20621;-69
2022/04/25 06:46:21;;;;;;;21.27;19.20;;;13.30;99.90;;;;;;5097381;28;20403;-69
2022/04/25 06:49:19;;;;;;;22.00;19.90;;;13.60;99.90;;;;;;5097167;28;20172;-68
2022/04/25 06:51:33;;;;;;;23.90;21.63;;;13.90;99.90;;;;;;5096669;28;20193;-68
2022/04/25 06:53:59;;;;;;;25.07;22.53;;;13.90;99.90;;;;;;5097058;28;20416;-68
2022/04/25 06:56:25;;;;;;;21.80;19.73;;;13.90;99.90;;;;;;5096826;28;20407;-70
2022/04/25 06:58:51;;;;;;;25.17;22.70;;;13.70;99.90;;;;;;5095980;28;20416;-67
2022/04/25 07:01:17;;;;;;;24.40;22.10;;;13.80;99.90;;;;;;5077988;28;20442;-70
2022/04/25 07:03:43;;;;;;;23.13;20.77;;;13.90;99.90;;;;;;5096391;28;20465;-68
2022/04/25 07:06:09;;;;;;;21.60;19.60;;;14.00;99.90;;;;;;5096900;28;20411;-69
2022/04/25 07:08:34;;;;;;;21.37;19.30;;;14.10;99.90;;;;;;5096949;28;20169;-69
2022/04/25 07:11:00;;;;;;;21.30;19.20;;;14.40;99.90;;;;;;5078134;28;20199;-69
2022/04/25 07:13:25;;;;;;;21.83;19.73;;;14.60;99.90;;;;;;5094778;28;20174;-68
2022/04/25 07:15:51;;;;;;;18.73;16.93;;;14.40;99.90;;;;;;5096522;28;20167;-69
2022/04/25 07:18:17;;;;;;;18.80;16.90;;;14.00;99.90;;;;;;5082017;28;20265;-69
2022/04/25 07:20:43;;;;;;;20.07;18.27;;;13.90;99.90;;;;;;5068956;28;20258;-68
2022/04/25 07:28:58;;;;;;;16.37;14.97;;;14.10;99.90;;;;;;5055875;28;20391;-70
2022/04/25 07:31:24;;;;;;;19.33;17.27;;;14.20;99.90;;;;;;5038189;28;20435;-68
2022/04/25 07:33:49;;;;;;;20.90;19.10;;;14.10;99.90;;;;;;5055893;28;20494;-68
2022/04/25 07:36:17;;;;;;;21.00;18.80;;;14.30;99.90;;;;;;5061157;28;20867;-68
2022/04/25 07:38:44;;;;;;;22.30;20.10;;;14.00;99.90;;;;;;5066252;28;20174;-69
2022/04/25 07:41:09;;;;;;;22.87;20.77;;;13.70;99.90;;;;;;5055157;28;20975;-69
2022/04/25 07:43:35;;;;;;;20.10;18.30;;;13.70;99.90;;;;;;5049283;28;20527;-68
2022/04/25 07:46:02;;;;;;;19.40;17.60;;;13.70;99.90;;;;;;5076411;28;20164;-68
2022/04/25 07:48:27;;;;;;;19.70;17.90;;;14.20;99.90;;;;;;5058054;28;20476;-69
2022/04/25 07:50:53;;;;;;;19.70;17.90;;;14.40;99.90;;;;;;5075794;28;20417;-68
2022/04/25 07:53:20;;;;;;;20.90;18.70;;;14.40;99.90;;;;;;5074818;28;20253;-69
2022/04/25 07:55:45;;;;;;;21.10;19.13;;;14.40;99.90;;;;;;5057673;28;20405;-69
2022/04/25 07:58:11;;;;;;;18.70;17.07;;;14.30;99.90;;;;;;5075565;28;20784;-69
2022/04/25 08:00:42;;;;;;;17.37;15.83;;;14.40;99.90;;;;;;5075753;28;20596;-69
2022/04/25 08:03:08;;;;;;;19.60;17.67;;;14.60;99.90;;;;;;5075952;28;20186;-70
2022/04/25 08:05:33;;;;;;;18.67;16.97;;;14.80;99.90;;;;;;5075584;28;20415;-68
2022/04/25 08:07:59;;;;;;;16.33;14.83;;;15.00;99.90;;;;;;5070837;28;20416;-68
2022/04/25 08:10:25;;;;;;;16.70;15.20;;;15.00;99.90;;;;;;5079105;28;20192;-68
2022/04/25 08:18:18;;;;;;;16.10;14.60;;;15.20;99.90;;;;;;5095748;28;20432;-69
2022/04/25 08:20:44;;;;;;;17.13;15.73;;;14.70;99.90;;;;;;5094544;28;20438;-68
2022/04/25 08:23:12;;;;;;;18.50;16.53;;;14.10;99.90;;;;;;5094066;28;20182;-69
2022/04/25 08:25:39;;;;;;;16.20;14.60;;;14.20;99.90;;;;;;5087767;28;20438;-70
2022/04/25 08:28:05;;;;;;;17.63;15.93;;;14.60;99.90;;;;;;5075151;28;20401;-70
2022/04/25 08:30:31;;;;;;;17.13;15.53;;;14.80;99.90;;;;;;5074922;28;20512;-68
2022/04/25 08:32:59;;;;;;;17.10;15.63;;;14.80;99.90;;;;;;5074610;28;20498;-68
2022/04/25 08:35:24;;;;;;;16.67;15.10;;;14.80;99.90;;;;;;5074097;28;20400;-69
2022/04/25 08:37:50;;;;;;;17.63;16.13;;;15.30;99.90;;;;;;5074751;28;20425;-69
2022/04/25 08:40:16;;;;;;;16.13;14.63;;;15.40;99.90;;;;;;5056640;28;20193;-67
2022/04/25 08:42:43;;;;;;;16.90;15.47;;;15.20;99.90;;;;;;5074656;28;20230;-68
2022/04/25 08:45:09;;;;;;;16.00;14.50;;;15.20;99.90;;;;;;5074387;28;20410;-68
2022/04/25 08:47:58;;;;;;;17.27;15.67;;;15.30;99.90;;;;;;5074732;28;20952;-68
2022/04/25 08:50:24;;;;;;;17.07;15.60;;;15.10;99.90;;;;;;5073852;28;20468;-69
2022/04/25 08:52:52;;;;;;;19.43;17.50;;;14.60;99.90;;;;;;5083596;28;20410;-69
2022/04/25 08:55:18;;;;;;;17.53;15.83;;;14.50;99.90;;;;;;5094897;28;20459;-69
2022/04/25 08:57:45;;;;;;;17.33;15.83;;;14.40;99.90;;;;;;5094645;28;20409;-70
2022/04/25 09:00:11;;;;;;;17.90;16.07;;;14.20;99.90;;;;;;5094657;28;20905;-69
2022/04/25 09:02:40;;;;;;;17.30;15.70;;;14.20;99.90;;;;;;5082862;28;20482;-70
2022/04/25 09:05:09;;;;;;;18.03;16.17;;;14.50;99.90;;;;;;5073918;28;20478;-70
2022/04/25 09:07:37;;;;;;;16.50;14.87;;;14.60;99.90;;;;;;5074365;28;20876;-69
2022/04/25 09:10:04;;;;;;;17.33;15.83;;;14.70;99.90;;;;;;5074400;28;20399;-69
2022/04/25 09:12:31;;;;;;;18.27;16.67;;;14.70;99.90;;;;;;5073581;28;20844;-70
2022/04/25 09:14:57;;;;;;;17.53;15.60;;;14.90;99.90;;;;;;5094421;28;20425;-70
2022/04/25 09:17:23;;;;;;;16.67;15.27;;;15.30;99.90;;;;;;5076155;28;20400;-70
2022/04/25 09:19:49;;;;;;;18.30;16.47;;;15.40;99.90;;;;;;5094762;28;20418;-69
2022/04/25 09:22:32;;;;;;;18.47;16.60;;;15.40;99.90;;;;;;5094084;28;20183;-68
2022/04/25 09:25:26;;;;;;;18.43;16.83;;;15.40;99.90;;;;;;5054630;28;20213;-68
2022/04/25 09:28:14;;;;;;;18.73;16.83;;;15.40;99.90;;;;;;5052553;28;20758;-70
2022/04/25 09:30:55;;;;;;;20.33;18.47;;;15.10;99.90;;;;;;5054734;28;20416;-70
2022/04/25 09:33:22;;;;;;;16.13;14.63;;;15.40;99.90;;;;;;5054783;28;20384;-69
2022/04/25 09:35:54;;;;;;;18.40;16.70;;;15.50;99.90;;;;;;5055163;28;20396;-69
2022/04/25 09:38:34;;;;;;;18.20;16.33;;;15.50;99.90;;;;;;5064816;28;20409;-70
2022/04/25 09:41:01;;;;;;;17.90;16.30;;;15.60;99.90;;;;;;5064459;28;20428;-69
2022/04/25 09:43:31;;;;;;;17.77;16.17;;;15.50;99.90;;;;;;5055103;28;20449;-69
2022/04/25 09:46:06;;;;;;;17.37;15.87;;;15.90;99.90;;;;;;5061350;28;20409;-69
2022/04/25 09:48:32;;;;;;;16.87;15.40;;;16.10;99.90;;;;;;5049729;28;20898;-69
2022/04/25 09:51:06;;;;;;;17.27;15.77;;;16.00;99.90;;;;;;5057042;28;20420;-69
2022/04/25 09:53:52;;;;;;;18.07;16.37;;;15.80;99.90;;;;;;5063757;28;20414;-68
2022/04/25 09:56:26;;;;;;;17.20;15.70;;;15.60;99.90;;;;;;5073724;28;20383;-68
2022/04/25 09:59:01;;;;;;;17.77;16.17;;;15.80;99.90;;;;;;5073288;28;20821;-69
2022/04/25 10:01:28;;;;;;;19.60;17.80;;;15.70;99.90;;;;;;5091873;28;20790;-68
2022/04/25 10:03:54;;;;;;;18.13;16.60;;;15.70;99.90;;;;;;5055272;28;20478;-68
2022/04/25 10:06:22;;;;;;;18.20;16.30;;;15.80;99.90;;;;;;5073203;28;20403;-70
2022/04/25 10:08:49;;;;;;;18.80;17.13;;;16.00;99.90;;;;;;5069810;28;20168;-69
2022/04/25 10:11:18;;;;;;;18.70;16.93;;;16.10;99.90;;;;;;5093479;28;20510;-69
2022/04/25 10:13:46;;;;;;;18.67;16.90;;;16.00;99.90;;;;;;5091422;28;20433;-69
2022/04/25 10:16:12;;;;;;;16.20;14.90;;;16.40;99.90;;;;;;5093150;28;20817;-68
2022/04/25 10:18:39;;;;;;;17.13;15.40;;;16.50;99.90;;;;;;5093434;28;20445;-69
2022/04/25 10:21:07;;;;;;;16.33;14.93;;;16.50;99.90;;;;;;5111716;22;20208;-75
2022/04/25 10:23:34;;;;;;;16.27;14.97;;;16.70;99.90;;;;;;5113578;28;20468;-78
2022/04/25 10:26:00;;;;;;;18.63;16.70;;;16.40;99.90;;;;;;5115185;28;20395;-78
2022/04/25 10:28:52;;;;;;;15.63;14.30;;;16.00;99.90;;;;;;5114169;28;20413;-77
2022/04/25 10:31:25;;;;;;;15.77;14.27;;;15.90;99.90;;;;;;5093557;28;20430;-78
2022/04/25 10:33:54;;;;;;;17.73;16.13;;;16.30;99.90;;;;;;5094149;28;20375;-78
2022/04/25 10:36:38;;;;;;;15.60;14.27;;;16.60;99.90;;;;;;5094327;28;20409;-78
2022/04/25 10:39:13;;;;;;;16.10;14.80;;;16.20;99.90;;;;;;5094720;28;20482;-78
2022/04/25 10:44:46;;;;;;;14.77;13.57;;;15.70;99.90;;;;;;5095028;28;20442;-78
2022/04/25 10:47:24;;;;;;;15.93;14.53;;;16.20;99.90;;;;;;5094816;28;20418;-78
2022/04/25 10:49:53;;;;;;;15.13;13.83;;;16.30;99.90;;;;;;5095213;28;20410;-78
2022/04/25 10:52:34;;;;;;;16.63;15.13;;;16.50;99.90;;;;;;5094622;28;20423;-78
2022/04/25 10:55:33;;;;;;;18.17;16.57;;;16.70;99.90;;;;;;5095413;28;20406;-78
2022/04/25 10:58:02;;;;;;;18.50;16.90;;;16.60;99.90;;;;;;5095349;28;20878;-78
2022/04/25 11:00:36;;;;;;;16.53;15.03;;;16.60;99.90;;;;;;5105770;28;20996;-77
2022/04/25 11:03:19;;;;;;;16.53;15.17;;;17.20;99.90;;;;;;5096167;28;20448;-78
2022/04/25 11:05:52;;;;;;;16.10;14.70;;;17.40;99.90;;;;;;5098594;28;20421;-78
2022/04/25 11:08:21;;;;;;;16.30;14.90;;;17.70;99.90;;;;;;5115602;28;20400;-78
2022/04/25 11:11:08;;;;;;;17.60;16.00;;;17.90;99.90;;;;;;5115233;28;20402;-77
2022/04/25 11:13:51;;;;;;;17.00;15.60;;;18.00;99.90;;;;;;5118219;28;20414;-78
2022/04/25 11:16:20;;;;;;;16.83;15.23;;;18.60;99.90;;;;;;5116785;28;20407;-77
2022/04/25 11:19:13;;;;;;;15.93;14.50;;;18.10;99.90;;;;;;5115878;28;20774;-77
2022/04/25 11:21:46;;;;;;;17.77;16.20;;;18.50;99.90;;;;;;5097233;28;20472;-77
2022/04/25 11:24:28;;;;;;;16.50;15.03;;;19.00;99.90;;;;;;5110949;28;20498;-77
2022/04/25 11:26:56;;;;;;;17.40;16.00;;;18.60;99.70;;;;;;5116052;28;20429;-77
2022/04/25 11:29:21;;;;;;;18.53;17.03;;;17.60;99.90;;;;;;5101093;28;20411;-77
2022/04/25 11:31:47;;;;;;;16.73;15.13;;;17.20;99.90;;;;;;5098603;28;20411;-78
2022/04/25 11:34:13;;;;;;;16.50;15.10;;;17.30;99.90;;;;;;5081020;28;20546;-78
2022/04/25 11:36:44;;;;;;;17.03;15.53;;;17.30;99.90;;;;;;5098729;28;20165;-78
2022/04/25 11:41:58;;;;;;;19.27;17.17;;;16.90;99.90;;;;;;5101573;28;20426;-78
2022/04/25 11:44:24;;;;;;;16.37;14.87;;;16.90;99.90;;;;;;5115282;28;20434;-78
2022/04/25 11:46:51;;;;;;;16.30;14.70;;;17.40;99.90;;;;;;5119257;28;20160;-78
2022/04/25 11:49:31;;;;;;;16.90;15.40;;;17.50;99.90;;;;;;5120618;28;20172;-78
2022/04/25 11:52:00;;;;;;;14.33;12.93;;;17.40;99.90;;;;;;5119952;28;20784;-78
2022/04/25 11:54:29;;;;;;;16.83;15.30;;;17.00;99.90;;;;;;5119682;28;20409;-78
2022/04/25 11:57:00;;;;;;;14.90;13.70;;;16.70;99.90;;;;;;5118730;28;20890;-78
2022/04/25 11:59:25;;;;;;;16.40;14.90;;;16.90;99.90;;;;;;5119446;28;20390;-78
2022/04/25 12:01:52;;;;;;;18.10;16.70;;;16.50;99.90;;;;;;5119441;28;20429;-78
2022/04/25 12:04:18;;;;;;;16.40;14.70;;;16.30;99.90;;;;;;5128517;28;20651;-77
2022/04/25 12:06:49;;;;;;;16.93;15.50;;;15.70;99.90;;;;;;5121531;28;20478;-77
2022/04/25 12:17:42;;;;;;;18.90;17.20;;;15.00;99.90;;;;;;5120383;28;20418;-77
2022/04/25 12:20:13;;;;;;;19.30;17.50;;;14.90;99.90;;;;;;5120297;28;20401;-77
2022/04/25 12:22:49;;;;;;;20.00;18.03;;;15.30;99.90;;;;;;5121793;28;20460;-78
2022/04/25 12:25:23;;;;;;;20.17;18.30;;;15.60;99.90;;;;;;5122181;28;20389;-77
2022/04/25 12:28:06;;;;;;;18.77;17.07;;;15.70;99.90;;;;;;5122238;28;20380;-78
2022/04/25 12:30:45;;;;;;;20.60;18.70;;;15.90;99.90;;;;;;5121939;28;20398;-77
2022/04/25 12:33:12;;;;;;;22.80;20.80;;;16.20;99.90;;;;;;5122040;28;20422;-78
2022/04/25 12:35:38;;;;;;;22.50;20.50;;;15.90;99.90;;;;;;5103795;28;20514;-77
2022/04/25 12:38:05;;;;;;;20.57;18.77;;;16.20;99.90;;;;;;5120437;28;20409;-77
2022/04/25 12:40:31;;;;;;;16.87;15.37;;;16.40;99.90;;;;;;5120306;28;20401;-78
2022/04/25 12:42:57;;;;;;;18.77;17.07;;;16.80;99.90;;;;;;5102572;28;20431;-78
2022/04/25 12:45:23;;;;;;;19.20;17.40;;;17.20;99.90;;;;;;5120698;28;20466;-78
2022/04/25 12:47:57;;;;;;;18.50;16.80;;;17.20;99.90;;;;;;5119865;28;20395;-78
2022/04/25 12:50:44;;;;;;;18.43;16.80;;;17.10;99.90;;;;;;5119554;28;20747;-77
2022/04/25 12:53:11;;;;;;;19.30;17.50;;;17.20;99.90;;;;;;5116766;28;20400;-77
2022/04/25 12:55:44;;;;;;;18.43;16.93;;;16.60;99.90;;;;;;5116572;28;20510;-77
2022/04/25 12:58:10;;;;;;;18.80;17.07;;;16.70;99.90;;;;;;5097619;28;20410;-78
2022/04/25 13:00:49;;;;;;;18.30;16.70;;;17.00;99.90;;;;;;5116401;28;20455;-77
2022/04/25 13:03:15;;;;;;;18.43;16.83;;;17.20;99.90;;;;;;5098835;28;20197;-77
2022/04/25 13:05:41;;;;;;;16.40;15.00;;;17.60;99.90;;;;;;5097782;28;21007;-77
2022/04/25 13:08:06;;;;;;;16.93;15.47;;;17.40;99.90;;;;;;5116776;28;20661;-77
2022/04/25 13:10:32;;;;;;;15.40;14.17;;;17.20;99.90;;;;;;5116468;28;20188;-77
2022/04/25 13:12:58;;;;;;;18.60;16.97;;;17.50;99.90;;;;;;5116168;28;20250;-77